aviador You're here:

KSLB Decoded Metar

STORM LAKE in IA, USA
Report Time2018-05-23 18:35:00
UTC Time2018-05-23 18:41:35
Flight Rules vfr VFR
Wind160° at 11 Gusting to 22 kt
W.Decomp.*RWY 17: 10.7 kt HW 2.7 kt LCW
RWY 13: 9.9 kt HW 4.8 kt RCW
RWY 24: 1.1 kt HW 10.9 kt LCW
W.Rank160° ranks 3
Current wind is above 160° avg. (10.5)
Visibility9999 m
Phenomena:N/A
Clouds:N/A
Expected CloudBase > 4,000 ft AGL from Temp-Dew spread
CeilingNone
Temp29°C (ISA +17)
Dew Point19°C (55% RH)
Heat Index30.3°C
AAT28.3°C
QNH1018 hPa
Density Alt3,560 ft
Elevation1,490 ft
Report Wrong Elevation
Raw Report
KSLB 231835Z AUTO 16011G22KT 10SM CLR 29/19 A3007 RMK AO2=

Extra information for KSLB:More info

Metar Taf Metar & Taf Last 4 Metars F.Rules Stats Wind Profile Meteogram Temp Stats Airport Information Weather charts Add Link Nearby VenuesMetar ALERT Operation Metar Decoded Social comments

AIRNAV info for KSLB